Time;durP1;ratioP1;P1;durP2;ratioP2;P2;SDS_P1;SDS_P2;PMS_P1;PMS_P2;Temp;Humidity;BMP_temperature;BMP_pressure;BME280_temperature;BME280_humidity;BME280_pressure;Samples;Min_cycle;Max_cycle;Signal;HPM_P1;HPM_P2
2021/06/05 00:00:43;;;;;;;3.40;2.00;;;18.20;99.70;;;;;;5051318;28;20870;-68
2021/06/05 00:03:11;;;;;;;3.13;1.70;;;18.20;99.70;;;;;;5051167;28;20459;-67
2021/06/05 00:05:40;;;;;;;4.90;1.90;;;18.10;99.70;;;;;;5051324;28;20475;-68
2021/06/05 00:08:08;;;;;;;2.00;1.40;;;18.00;99.70;;;;;;5051577;28;20903;-68
2021/06/05 00:10:39;;;;;;;3.10;1.37;;;17.90;99.70;;;;;;5051345;28;20444;-68
2021/06/05 00:13:11;;;;;;;4.73;1.50;;;17.90;99.70;;;;;;5051062;28;20446;-68
2021/06/05 00:15:41;;;;;;;2.03;1.37;;;17.80;99.70;;;;;;5051136;28;20475;-68
2021/06/05 00:18:07;;;;;;;3.10;1.70;;;17.90;99.70;;;;;;5051237;28;20815;-69
2021/06/05 00:20:33;;;;;;;1.90;1.50;;;17.90;99.70;;;;;;5050697;28;20459;-68
2021/06/05 00:23:02;;;;;;;2.27;1.30;;;18.00;99.70;;;;;;5050146;28;20436;-68
2021/06/05 00:25:30;;;;;;;2.80;1.60;;;18.00;99.70;;;;;;5051084;28;20467;-68
2021/06/05 00:27:56;;;;;;;2.10;1.20;;;18.00;99.70;;;;;;5051043;28;20444;-68
2021/06/05 00:30:26;;;;;;;3.73;1.57;;;17.90;99.70;;;;;;5051135;28;20957;-68
2021/06/05 00:32:53;;;;;;;2.30;1.60;;;17.90;99.70;;;;;;5050694;28;20444;-68
2021/06/05 00:35:19;;;;;;;4.00;1.70;;;17.90;99.70;;;;;;5050799;28;20474;-68
2021/06/05 00:37:46;;;;;;;4.20;1.50;;;17.90;99.70;;;;;;5050769;28;20443;-68
2021/06/05 00:40:15;;;;;;;1.70;1.30;;;17.90;99.70;;;;;;5050556;28;20440;-68
2021/06/05 00:42:41;;;;;;;2.37;1.50;;;17.80;99.70;;;;;;5050444;28;20444;-68
2021/06/05 00:45:09;;;;;;;2.03;1.30;;;17.70;99.70;;;;;;5050751;28;20468;-66
2021/06/05 00:47:37;;;;;;;1.90;1.40;;;17.70;99.70;;;;;;5050679;28;20455;-68
2021/06/05 00:50:05;;;;;;;2.57;1.50;;;17.70;99.70;;;;;;5050649;28;20436;-66
2021/06/05 00:52:31;;;;;;;2.00;1.40;;;17.60;99.70;;;;;;5050081;28;20448;-66
2021/06/05 00:54:58;;;;;;;1.93;1.27;;;17.60;99.70;;;;;;5050361;28;20502;-68
2021/06/05 00:57:25;;;;;;;3.87;1.60;;;17.60;99.70;;;;;;5050419;28;20969;-68
2021/06/05 00:59:51;;;;;;;3.20;1.63;;;17.70;99.70;;;;;;5050108;28;20483;-68
2021/06/05 01:02:17;;;;;;;1.80;1.33;;;17.60;99.70;;;;;;5050347;28;20443;-68
2021/06/05 01:04:45;;;;;;;1.73;1.40;;;17.60;99.70;;;;;;5049937;28;20483;-68
2021/06/05 01:07:16;;;;;;;2.47;1.60;;;17.50;99.70;;;;;;5050241;28;21102;-68
2021/06/05 01:09:57;;;;;;;2.13;1.43;;;17.40;99.70;;;;;;5050393;28;20444;-69
2021/06/05 01:12:33;;;;;;;1.83;1.50;;;17.30;99.70;;;;;;5050228;28;20755;-69
2021/06/05 01:15:07;;;;;;;2.67;1.63;;;17.10;99.70;;;;;;5050204;28;20525;-68
2021/06/05 01:17:37;;;;;;;2.03;1.50;;;17.00;99.70;;;;;;5050101;28;20828;-68
2021/06/05 01:20:09;;;;;;;2.03;1.50;;;17.10;99.70;;;;;;5050099;28;20483;-68
2021/06/05 01:23:11;;;;;;;2.73;1.50;;;17.20;99.70;;;;;;5049836;28;20451;-66
2021/06/05 01:26:10;;;;;;;1.90;1.40;;;17.20;99.70;;;;;;5050050;28;20982;-67
2021/06/05 01:28:41;;;;;;;2.33;1.73;;;17.30;99.70;;;;;;5045353;28;20505;-67
2021/06/05 01:31:10;;;;;;;2.70;1.27;;;17.30;99.70;;;;;;5050135;28;20444;-67
2021/06/05 01:33:41;;;;;;;1.57;1.40;;;17.30;99.70;;;;;;5049684;28;20447;-67
2021/06/05 01:36:10;;;;;;;2.30;1.70;;;17.30;99.70;;;;;;5050098;28;20454;-66
2021/06/05 01:38:42;;;;;;;2.03;1.50;;;17.30;99.70;;;;;;5049769;28;20480;-68
2021/06/05 01:41:12;;;;;;;2.47;1.47;;;17.30;99.70;;;;;;5049890;28;20452;-67
2021/06/05 01:43:39;;;;;;;2.17;1.40;;;17.30;99.70;;;;;;5049853;28;20444;-68
2021/06/05 01:46:08;;;;;;;2.43;1.40;;;17.20;99.70;;;;;;5049867;28;20448;-68
2021/06/05 01:48:34;;;;;;;2.33;1.40;;;17.10;99.70;;;;;;5049622;28;20436;-67
2021/06/05 01:51:04;;;;;;;1.53;1.20;;;17.20;99.70;;;;;;5049933;28;20439;-66
2021/06/05 01:53:34;;;;;;;1.50;1.30;;;17.20;99.70;;;;;;5053787;28;20443;-67
2021/06/05 01:56:08;;;;;;;2.27;1.37;;;17.10;99.70;;;;;;5054361;28;20459;-66
2021/06/05 01:58:37;;;;;;;5.10;1.70;;;17.10;99.70;;;;;;5053796;28;20485;-67
2021/06/05 02:01:05;;;;;;;2.07;1.40;;;17.10;99.70;;;;;;5053548;28;20451;-66
2021/06/05 02:03:32;;;;;;;3.17;1.60;;;17.00;99.70;;;;;;5053688;28;20451;-66
2021/06/05 02:05:58;;;;;;;3.13;1.73;;;17.00;99.70;;;;;;5053838;28;20475;-66
2021/06/05 02:08:26;;;;;;;1.63;1.43;;;17.00;99.70;;;;;;5053681;28;20470;-67
2021/06/05 02:10:59;;;;;;;1.40;1.20;;;17.00;99.70;;;;;;5053691;28;20443;-67
2021/06/05 02:13:30;;;;;;;4.70;1.80;;;17.10;99.70;;;;;;5053551;28;20814;-68
2021/06/05 02:16:01;;;;;;;1.90;1.30;;;17.00;99.70;;;;;;5053551;28;20467;-67
2021/06/05 02:18:31;;;;;;;2.03;1.40;;;17.00;99.70;;;;;;5053396;28;20479;-67
2021/06/05 02:21:01;;;;;;;2.70;1.43;;;17.00;99.70;;;;;;5053411;28;20454;-68
2021/06/05 02:23:33;;;;;;;3.73;1.60;;;17.00;99.70;;;;;;5053055;28;20455;-67
2021/06/05 02:26:00;;;;;;;2.20;1.40;;;17.00;99.70;;;;;;5053314;28;20461;-67
2021/06/05 02:28:28;;;;;;;2.03;1.40;;;17.00;99.70;;;;;;5053443;28;20533;-67
2021/06/05 02:30:56;;;;;;;3.10;1.53;;;16.90;99.70;;;;;;5053414;28;20448;-67
2021/06/05 02:33:24;;;;;;;2.50;1.50;;;17.00;99.70;;;;;;5052962;28;20452;-67
2021/06/05 02:35:51;;;;;;;3.30;1.60;;;16.90;99.70;;;;;;5053253;28;20537;-67
2021/06/05 02:38:20;;;;;;;1.90;1.30;;;16.80;99.70;;;;;;5053111;28;20481;-67
2021/06/05 02:40:47;;;;;;;3.60;1.50;;;16.80;99.70;;;;;;5053510;28;20447;-67
2021/06/05 02:43:16;;;;;;;2.33;1.70;;;16.80;99.70;;;;;;5052986;28;21153;-67
2021/06/05 02:45:48;;;;;;;2.00;1.30;;;16.70;99.70;;;;;;5053084;28;21001;-67
2021/06/05 02:48:15;;;;;;;1.80;1.57;;;16.80;99.70;;;;;;5052994;28;20939;-67
2021/06/05 02:50:45;;;;;;;3.00;1.70;;;16.70;99.70;;;;;;5053133;28;20970;-67
2021/06/05 02:53:12;;;;;;;1.97;1.40;;;16.70;99.70;;;;;;5052601;28;20443;-66
2021/06/05 02:55:38;;;;;;;2.60;1.60;;;16.60;99.70;;;;;;5052980;28;20466;-66
2021/06/05 02:58:06;;;;;;;1.80;1.20;;;16.70;99.70;;;;;;5052893;28;20444;-66
2021/06/05 03:00:35;;;;;;;2.57;1.23;;;16.60;99.70;;;;;;5052609;28;20538;-66
2021/06/05 03:03:03;;;;;;;2.20;1.40;;;16.50;99.70;;;;;;5052556;28;20444;-68
2021/06/05 03:05:30;;;;;;;3.40;1.63;;;16.50;99.70;;;;;;5052426;28;20482;-66
2021/06/05 03:07:58;;;;;;;2.20;1.60;;;16.50;99.70;;;;;;5052627;28;20443;-66
2021/06/05 03:10:27;;;;;;;2.33;1.50;;;16.50;99.70;;;;;;5052601;28;20431;-66
2021/06/05 03:13:01;;;;;;;2.00;1.37;;;16.50;99.70;;;;;;5052926;28;20443;-66
2021/06/05 03:15:27;;;;;;;1.90;1.40;;;16.50;99.70;;;;;;5052403;28;20467;-67
2021/06/05 03:17:54;;;;;;;2.37;1.50;;;16.50;99.70;;;;;;5052407;28;20822;-66
2021/06/05 03:20:23;;;;;;;1.93;1.30;;;16.50;99.70;;;;;;5052403;28;20842;-67
2021/06/05 03:22:51;;;;;;;2.10;1.50;;;16.50;99.70;;;;;;5052298;28;20944;-67
2021/06/05 03:25:18;;;;;;;2.63;1.60;;;16.60;99.70;;;;;;5052167;28;20555;-67
2021/06/05 03:27:45;;;;;;;2.23;1.37;;;16.70;99.70;;;;;;5052295;28;20436;-66
2021/06/05 03:30:13;;;;;;;1.83;1.47;;;16.70;99.70;;;;;;5052443;28;20475;-66
2021/06/05 03:32:39;;;;;;;2.23;1.50;;;16.90;99.70;;;;;;5051956;28;20443;-66
2021/06/05 03:35:07;;;;;;;2.50;1.50;;;16.90;99.70;;;;;;5051951;28;20476;-66
2021/06/05 03:37:34;;;;;;;2.17;1.60;;;16.90;99.70;;;;;;5052054;28;20455;-67
2021/06/05 03:40:00;;;;;;;1.93;1.43;;;16.90;99.70;;;;;;5052066;28;20479;-67
2021/06/05 03:42:28;;;;;;;2.70;1.53;;;16.90;99.70;;;;;;5052119;28;20447;-67
2021/06/05 03:44:56;;;;;;;2.30;1.53;;;16.90;99.70;;;;;;5051482;28;20468;-67
2021/06/05 03:47:22;;;;;;;2.20;1.47;;;16.90;99.70;;;;;;5051890;28;20885;-67
2021/06/05 03:49:51;;;;;;;2.30;1.40;;;16.90;99.70;;;;;;5051797;28;20444;-67
2021/06/05 03:52:22;;;;;;;2.40;1.50;;;16.90;99.70;;;;;;5051750;28;20455;-66
2021/06/05 03:54:48;;;;;;;3.27;1.60;;;16.90;99.70;;;;;;5051324;28;20957;-66
2021/06/05 03:57:14;;;;;;;2.00;1.50;;;16.90;99.70;;;;;;5051696;28;20447;-67
2021/06/05 03:59:42;;;;;;;2.00;1.53;;;16.90;99.70;;;;;;5051267;28;20502;-67
2021/06/05 04:02:08;;;;;;;2.50;1.60;;;16.90;99.70;;;;;;5051625;28;20451;-67
2021/06/05 04:04:34;;;;;;;2.40;1.60;;;17.00;99.70;;;;;;5051021;28;20480;-67
2021/06/05 04:07:03;;;;;;;2.20;1.67;;;17.00;99.70;;;;;;5051560;28;20635;-67
2021/06/05 04:09:29;;;;;;;2.03;1.50;;;17.00;99.70;;;;;;5051375;28;20498;-67
2021/06/05 04:11:55;;;;;;;1.70;1.30;;;17.00;99.70;;;;;;5051503;28;20542;-66
2021/06/05 04:14:21;;;;;;;4.27;1.73;;;17.00;99.70;;;;;;5050434;28;20810;-67
2021/06/05 04:16:49;;;;;;;2.17;1.60;;;17.00;99.70;;;;;;5051387;28;20443;-66
2021/06/05 04:19:15;;;;;;;2.50;1.50;;;17.00;99.70;;;;;;5051318;28;20486;-67
2021/06/05 04:21:42;;;;;;;4.07;1.73;;;17.00;99.70;;;;;;5051234;28;20448;-67
2021/06/05 04:24:08;;;;;;;2.50;1.50;;;17.00;99.70;;;;;;5050962;28;20470;-67
2021/06/05 04:26:34;;;;;;;2.30;1.47;;;17.00;99.70;;;;;;5051143;28;20448;-67
2021/06/05 04:29:01;;;;;;;2.93;1.70;;;17.10;99.70;;;;;;5051135;28;20466;-67
2021/06/05 04:31:27;;;;;;;2.67;1.63;;;17.10;99.70;;;;;;5050969;28;20451;-67
2021/06/05 04:33:55;;;;;;;3.40;1.60;;;17.10;99.70;;;;;;5050648;28;20822;-67
2021/06/05 04:36:21;;;;;;;2.40;1.83;;;17.00;99.70;;;;;;5050758;28;20451;-67
2021/06/05 04:38:48;;;;;;;2.93;1.83;;;17.00;99.70;;;;;;5050844;28;20476;-67
2021/06/05 04:41:17;;;;;;;2.53;1.53;;;17.00;99.70;;;;;;5050884;28;20439;-67
2021/06/05 04:43:44;;;;;;;2.50;1.60;;;16.90;99.70;;;;;;5050449;28;20452;-67
2021/06/05 04:46:12;;;;;;;3.30;1.70;;;16.90;99.70;;;;;;5050842;28;20918;-67
2021/06/05 04:48:38;;;;;;;2.73;1.90;;;16.90;99.70;;;;;;5050659;28;20443;-67
2021/06/05 04:51:07;;;;;;;2.93;2.07;;;16.90;99.70;;;;;;5050587;28;20501;-67
2021/06/05 04:53:34;;;;;;;2.43;1.73;;;16.90;99.70;;;;;;5050214;28;20997;-67
2021/06/05 04:56:00;;;;;;;2.17;1.47;;;17.00;99.70;;;;;;5050505;28;20459;-67
2021/06/05 04:58:26;;;;;;;3.53;1.90;;;17.00;99.70;;;;;;5050475;28;20458;-67
2021/06/05 05:00:54;;;;;;;2.37;1.60;;;17.00;99.70;;;;;;5050141;28;20521;-67
2021/06/05 05:03:23;;;;;;;3.10;2.00;;;17.00;99.70;;;;;;5050231;28;20448;-67
2021/06/05 05:05:51;;;;;;;4.67;2.27;;;17.10;99.70;;;;;;5050113;28;20479;-67
2021/06/05 05:08:19;;;;;;;3.70;2.00;;;17.10;99.70;;;;;;5050485;28;20447;-67
2021/06/05 05:10:48;;;;;;;2.90;1.83;;;17.10;99.70;;;;;;5050475;28;20444;-68
2021/06/05 05:13:21;;;;;;;3.43;1.83;;;17.10;99.70;;;;;;5050182;28;20448;-67
2021/06/05 05:15:48;;;;;;;2.63;1.90;;;17.10;99.70;;;;;;5050477;28;21033;-67
2021/06/05 05:18:15;;;;;;;3.30;1.80;;;17.10;99.70;;;;;;5050231;28;20447;-67
2021/06/05 05:20:43;;;;;;;3.47;1.70;;;17.10;99.70;;;;;;5050095;28;20830;-67
2021/06/05 05:23:11;;;;;;;3.50;2.00;;;17.10;99.70;;;;;;5049942;28;20448;-67
2021/06/05 05:25:40;;;;;;;3.40;1.80;;;17.10;99.70;;;;;;5049707;28;20521;-67
2021/06/05 05:28:07;;;;;;;2.93;1.70;;;17.10;99.70;;;;;;5050204;28;20443;-67
2021/06/05 05:30:38;;;;;;;2.40;1.80;;;17.20;99.70;;;;;;5050312;28;20440;-67
2021/06/05 05:33:04;;;;;;;3.00;1.73;;;17.10;99.70;;;;;;5050162;28;20450;-67
2021/06/05 05:35:32;;;;;;;3.37;1.80;;;17.20;99.70;;;;;;5050013;28;20467;-67
2021/06/05 05:37:59;;;;;;;2.40;1.60;;;17.30;99.70;;;;;;5050017;28;20538;-67
2021/06/05 05:40:26;;;;;;;1.90;1.50;;;17.20;99.70;;;;;;5050125;28;21007;-67
2021/06/05 05:42:54;;;;;;;3.73;1.90;;;17.30;99.70;;;;;;5049801;28;20443;-67
2021/06/05 05:45:21;;;;;;;3.10;1.57;;;17.40;99.70;;;;;;5049917;28;20460;-67
2021/06/05 05:47:47;;;;;;;3.03;1.87;;;17.50;99.70;;;;;;5049937;28;20478;-67
2021/06/05 05:50:16;;;;;;;3.40;2.00;;;17.50;99.70;;;;;;5049979;28;20857;-66
2021/06/05 05:52:43;;;;;;;3.07;1.70;;;17.50;99.70;;;;;;5049698;28;20451;-66
2021/06/05 05:55:10;;;;;;;1.70;1.30;;;17.50;99.70;;;;;;5049739;28;20467;-67
2021/06/05 05:57:37;;;;;;;2.50;1.50;;;17.60;99.70;;;;;;5049934;28;20448;-66
2021/06/05 06:00:07;;;;;;;3.50;2.07;;;17.80;99.70;;;;;;5049576;28;20482;-68
2021/06/05 06:02:34;;;;;;;2.40;1.60;;;17.80;99.70;;;;;;5049496;28;20811;-66
2021/06/05 06:05:00;;;;;;;4.07;1.73;;;17.80;99.70;;;;;;5049397;28;20486;-66
2021/06/05 06:07:26;;;;;;;3.50;1.97;;;17.80;99.70;;;;;;5049761;28;20470;-66
2021/06/05 06:09:53;;;;;;;2.07;1.40;;;17.90;99.70;;;;;;5049792;28;20440;-66
2021/06/05 06:12:19;;;;;;;2.43;1.40;;;18.10;99.70;;;;;;5049688;28;20443;-66
2021/06/05 06:14:46;;;;;;;2.07;1.40;;;18.20;99.70;;;;;;5049541;28;20467;-66
2021/06/05 06:17:13;;;;;;;1.97;1.50;;;18.30;99.70;;;;;;5049428;28;20452;-66
2021/06/05 06:19:40;;;;;;;2.03;1.70;;;18.40;99.70;;;;;;5049916;28;20506;-66
2021/06/05 06:22:06;;;;;;;2.50;1.43;;;18.50;99.70;;;;;;5049862;28;20443;-66
2021/06/05 06:24:32;;;;;;;2.70;1.60;;;18.80;99.70;;;;;;5049221;28;20474;-67
2021/06/05 06:26:59;;;;;;;2.03;1.40;;;19.10;99.70;;;;;;5049569;28;20439;-66
2021/06/05 06:29:30;;;;;;;3.17;1.50;;;19.20;99.70;;;;;;5049890;28;20871;-66
2021/06/05 06:31:56;;;;;;;2.37;1.50;;;19.60;99.70;;;;;;5049404;28;20477;-68
2021/06/05 06:34:26;;;;;;;1.90;1.33;;;20.20;99.70;;;;;;5049136;28;20974;-68
2021/06/05 06:36:53;;;;;;;2.20;1.50;;;20.80;99.70;;;;;;5049303;28;20450;-67
2021/06/05 06:39:20;;;;;;;2.57;1.50;;;21.40;99.70;;;;;;5053015;28;20482;-66
2021/06/05 06:41:46;;;;;;;1.80;1.30;;;21.60;99.70;;;;;;5053114;28;20973;-65
2021/06/05 06:44:12;;;;;;;2.17;1.40;;;21.90;99.70;;;;;;5052713;28;20462;-66
2021/06/05 06:46:41;;;;;;;1.40;1.30;;;22.10;99.70;;;;;;5053012;28;20447;-67
2021/06/05 06:49:08;;;;;;;1.87;1.23;;;22.50;99.70;;;;;;5052977;28;20451;-67
2021/06/05 06:51:36;;;;;;;2.30;1.60;;;23.00;99.70;;;;;;5052877;28;20450;-67
2021/06/05 06:54:03;;;;;;;1.80;1.30;;;23.50;99.70;;;;;;5052710;28;20459;-67
2021/06/05 06:56:29;;;;;;;2.13;1.40;;;23.50;99.70;;;;;;5052984;28;20219;-67
2021/06/05 06:58:55;;;;;;;1.90;1.47;;;23.40;99.70;;;;;;5052667;28;20642;-67
2021/06/05 07:01:22;;;;;;;1.67;1.40;;;23.20;99.70;;;;;;5052454;28;20201;-66
2021/06/05 07:03:48;;;;;;;1.70;1.40;;;23.30;99.70;;;;;;5052272;28;20599;-67
2021/06/05 07:06:15;;;;;;;1.83;1.53;;;23.20;99.70;;;;;;5052761;28;20227;-67
2021/06/05 07:08:43;;;;;;;1.70;1.30;;;22.70;99.70;;;;;;5052833;28;20233;-67
2021/06/05 07:11:12;;;;;;;1.97;1.50;;;22.30;99.70;;;;;;5052378;28;20231;-67
2021/06/05 07:13:39;;;;;;;2.60;1.50;;;22.00;99.70;;;;;;5048764;28;20447;-67
2021/06/05 07:16:07;;;;;;;2.97;1.60;;;21.90;99.70;;;;;;5051552;28;20439;-67
2021/06/05 07:18:35;;;;;;;2.07;1.40;;;21.60;99.70;;;;;;5051819;28;20443;-67
2021/06/05 07:21:02;;;;;;;2.40;1.53;;;21.50;99.70;;;;;;5052430;28;20450;-66
2021/06/05 07:23:31;;;;;;;2.40;1.47;;;21.40;99.70;;;;;;5051671;28;20847;-68
2021/06/05 07:26:00;;;;;;;2.10;1.40;;;21.40;99.70;;;;;;5051334;28;20467;-66
2021/06/05 07:28:30;;;;;;;1.70;1.30;;;21.20;99.70;;;;;;5051775;28;20443;-68
2021/06/05 07:30:57;;;;;;;2.50;1.60;;;21.10;99.70;;;;;;5051775;28;20447;-66
2021/06/05 07:33:25;;;;;;;2.23;1.40;;;21.20;99.70;;;;;;5051586;28;20451;-67
2021/06/05 07:35:52;;;;;;;2.67;1.57;;;21.20;99.70;;;;;;5051699;28;20490;-66
2021/06/05 07:38:19;;;;;;;2.17;1.40;;;21.30;99.70;;;;;;5051938;28;20451;-66
2021/06/05 07:40:49;;;;;;;1.67;1.30;;;21.30;99.70;;;;;;5045033;28;20904;-67
2021/06/05 07:43:18;;;;;;;2.30;1.37;;;21.50;99.70;;;;;;5042143;28;20501;-67
2021/06/05 07:45:45;;;;;;;1.53;1.40;;;21.50;99.70;;;;;;5051398;28;20472;-67
2021/06/05 07:48:12;;;;;;;2.30;1.50;;;21.50;99.70;;;;;;5040719;28;20440;-67
2021/06/05 07:50:41;;;;;;;1.90;1.40;;;21.70;99.70;;;;;;5030777;28;20440;-67
2021/06/05 07:53:08;;;;;;;2.73;1.53;;;21.70;99.70;;;;;;5031414;28;20536;-67
2021/06/05 07:55:35;;;;;;;1.67;1.20;;;21.60;99.70;;;;;;5045397;28;20464;-67
2021/06/05 07:58:01;;;;;;;2.10;1.50;;;21.60;99.70;;;;;;5051231;28;20456;-67
2021/06/05 08:00:32;;;;;;;1.83;1.40;;;21.60;99.70;;;;;;5051069;28;20483;-67
2021/06/05 08:02:59;;;;;;;1.73;1.30;;;21.50;99.70;;;;;;5050507;28;20813;-67
2021/06/05 08:05:25;;;;;;;1.70;1.40;;;21.50;99.70;;;;;;5050992;28;20843;-67
2021/06/05 08:07:52;;;;;;;1.83;1.40;;;21.40;99.70;;;;;;5051062;28;20458;-67
2021/06/05 08:10:21;;;;;;;2.40;1.40;;;21.50;99.70;;;;;;5051596;28;20444;-67
2021/06/05 08:12:47;;;;;;;2.10;1.40;;;21.50;99.70;;;;;;5050795;28;20451;-66
2021/06/05 08:15:16;;;;;;;2.03;1.40;;;21.40;99.70;;;;;;5049066;28;20479;-67
2021/06/05 08:17:43;;;;;;;1.63;1.30;;;21.30;99.70;;;;;;5051024;28;20447;-67
2021/06/05 08:20:19;;;;;;;3.13;1.60;;;21.30;99.70;;;;;;5041235;28;20488;-66
2021/06/05 08:22:45;;;;;;;1.77;1.37;;;21.00;99.70;;;;;;5030850;28;20512;-67
2021/06/05 08:25:12;;;;;;;1.87;1.40;;;20.90;99.70;;;;;;5035804;28;20900;-67
2021/06/05 08:27:39;;;;;;;2.67;1.40;;;21.00;99.70;;;;;;5041511;28;20800;-67
2021/06/05 08:30:08;;;;;;;1.70;1.27;;;21.00;99.70;;;;;;5042842;28;20440;-66
2021/06/05 08:32:34;;;;;;;2.17;1.40;;;20.80;99.70;;;;;;5035952;28;20436;-67
2021/06/05 08:35:03;;;;;;;1.73;1.23;;;20.80;99.70;;;;;;5042020;28;20822;-66
2021/06/05 08:37:29;;;;;;;2.27;1.50;;;20.60;99.70;;;;;;5043835;28;20511;-66
2021/06/05 08:39:56;;;;;;;2.17;1.20;;;20.60;99.70;;;;;;5038072;28;20484;-66
2021/06/05 08:42:32;;;;;;;1.80;1.23;;;20.50;99.70;;;;;;5047423;28;20448;-67
2021/06/05 08:44:58;;;;;;;1.90;1.20;;;20.50;99.70;;;;;;5049727;28;20545;-67
2021/06/05 08:47:28;;;;;;;2.00;1.47;;;20.40;99.70;;;;;;5050441;28;20440;-67
2021/06/05 08:49:54;;;;;;;3.60;1.47;;;20.60;99.70;;;;;;5050244;28;21002;-66
2021/06/05 08:52:32;;;;;;;2.43;1.40;;;20.80;99.70;;;;;;5050135;28;20444;-65
2021/06/05 08:55:04;;;;;;;1.97;1.30;;;20.90;99.70;;;;;;5049985;28;20463;-67
2021/06/05 08:57:35;;;;;;;1.90;1.30;;;20.80;99.70;;;;;;5050228;28;20447;-67
2021/06/05 09:00:09;;;;;;;2.30;1.70;;;20.70;99.70;;;;;;5049579;28;20490;-67
2021/06/05 09:02:37;;;;;;;1.87;1.20;;;20.70;99.70;;;;;;5049474;28;20493;-66
2021/06/05 09:05:06;;;;;;;2.03;1.33;;;20.90;99.70;;;;;;5049900;28;20505;-66
2021/06/05 09:07:34;;;;;;;1.73;1.20;;;20.80;99.70;;;;;;5050283;28;20759;-66
2021/06/05 09:10:00;;;;;;;1.73;1.50;;;20.90;99.70;;;;;;5043211;28;20453;-66
2021/06/05 09:12:27;;;;;;;3.10;1.73;;;21.00;99.70;;;;;;5035610;28;20441;-66
2021/06/05 09:14:57;;;;;;;3.50;1.50;;;21.00;99.70;;;;;;5046036;28;20471;-66
2021/06/05 09:17:36;;;;;;;1.80;1.40;;;21.00;99.70;;;;;;5046972;28;20951;-66
2021/06/05 09:20:10;;;;;;;1.83;1.60;;;21.10;99.70;;;;;;5049823;28;20518;-66
2021/06/05 09:22:40;;;;;;;1.60;1.20;;;20.90;99.70;;;;;;5048793;28;20444;-66
2021/06/05 09:25:27;;;;;;;1.50;1.30;;;20.80;99.70;;;;;;5049847;28;20460;-67
2021/06/05 09:27:53;;;;;;;2.43;1.50;;;20.90;99.70;;;;;;5038358;28;20863;-67
2021/06/05 09:30:34;;;;;;;2.60;1.47;;;21.00;99.70;;;;;;5049738;28;20444;-67
2021/06/05 09:33:02;;;;;;;1.77;1.30;;;21.10;99.70;;;;;;5048941;28;20943;-67
2021/06/05 09:35:32;;;;;;;2.37;1.57;;;21.10;99.70;;;;;;5049180;28;21071;-67
2021/06/05 09:38:18;;;;;;;1.83;1.47;;;21.20;99.70;;;;;;5044854;28;20494;-66
2021/06/05 09:41:03;;;;;;;2.03;1.40;;;21.20;99.70;;;;;;5048589;28;20479;-66
2021/06/05 09:43:30;;;;;;;2.60;1.40;;;21.20;99.70;;;;;;5048710;28;20455;-67
2021/06/05 09:46:07;;;;;;;2.10;1.50;;;21.20;99.70;;;;;;5049140;28;20502;-66
2021/06/05 09:48:38;;;;;;;1.77;1.53;;;21.30;99.70;;;;;;5048704;28;20547;-66
2021/06/05 09:51:22;;;;;;;2.83;1.50;;;21.30;99.70;;;;;;5048423;28;20440;-66
2021/06/05 09:54:01;;;;;;;2.00;1.40;;;21.40;99.70;;;;;;5048583;28;20466;-66
2021/06/05 09:56:31;;;;;;;2.33;1.50;;;21.30;99.70;;;;;;5048695;28;20453;-66
2021/06/05 09:59:04;;;;;;;1.77;1.20;;;21.50;99.70;;;;;;5043267;28;20565;-67
2021/06/05 10:01:36;;;;;;;1.77;1.33;;;21.40;99.70;;;;;;5045644;28;20835;-67
2021/06/05 10:04:21;;;;;;;2.57;1.40;;;21.30;99.70;;;;;;5028730;28;20484;-67
2021/06/05 10:06:52;;;;;;;1.50;1.30;;;21.30;99.70;;;;;;5033067;28;20444;-67
2021/06/05 10:09:38;;;;;;;2.47;1.60;;;21.40;99.70;;;;;;5047810;28;20436;-67
2021/06/05 10:12:08;;;;;;;1.60;1.30;;;21.40;99.70;;;;;;5043187;28;20583;-66
2021/06/05 10:14:51;;;;;;;1.93;1.37;;;21.30;99.70;;;;;;5049491;28;20475;-67
2021/06/05 10:17:26;;;;;;;2.43;1.40;;;21.30;99.70;;;;;;5051996;28;20476;-68
2021/06/05 10:19:58;;;;;;;2.07;1.40;;;21.40;99.70;;;;;;5052949;28;20888;-68
2021/06/05 10:22:25;;;;;;;2.17;1.43;;;21.50;99.70;;;;;;5048613;28;20452;-67
2021/06/05 10:24:59;;;;;;;2.20;1.50;;;21.40;99.70;;;;;;5051783;28;20463;-68
2021/06/05 10:27:29;;;;;;;3.07;1.50;;;21.40;99.70;;;;;;5053384;28;20448;-65
2021/06/05 10:30:02;;;;;;;2.67;1.50;;;21.40;99.70;;;;;;5052437;28;20451;-67
2021/06/05 10:32:41;;;;;;;1.93;1.30;;;21.40;99.70;;;;;;5041266;28;20448;-66
2021/06/05 10:35:11;;;;;;;1.50;1.20;;;21.50;99.70;;;;;;5040555;28;20471;-67
2021/06/05 10:37:39;;;;;;;3.87;1.70;;;21.70;99.70;;;;;;5032632;28;20440;-66
2021/06/05 10:40:15;;;;;;;2.63;1.60;;;21.80;99.70;;;;;;5040647;28;20472;-66
2021/06/05 10:42:44;;;;;;;2.20;1.50;;;21.80;99.70;;;;;;5033080;28;20444;-65
2021/06/05 10:45:16;;;;;;;3.23;1.43;;;22.10;99.70;;;;;;5040858;28;21020;-66
2021/06/05 10:47:49;;;;;;;2.37;1.50;;;21.90;99.70;;;;;;5046166;28;20545;-66
2021/06/05 10:50:19;;;;;;;2.33;1.60;;;21.90;99.70;;;;;;5049395;28;20510;-67
2021/06/05 10:52:52;;;;;;;2.13;1.60;;;21.90;99.70;;;;;;5051420;28;20508;-66
2021/06/05 10:55:24;;;;;;;3.10;1.67;;;22.00;99.70;;;;;;5051635;28;20467;-67
2021/06/05 10:58:07;;;;;;;3.10;1.73;;;21.80;99.70;;;;;;5032841;28;20456;-67
2021/06/05 11:00:49;;;;;;;2.67;1.60;;;21.90;99.70;;;;;;5030922;28;20480;-67
2021/06/05 11:03:46;;;;;;;2.10;1.50;;;21.80;99.70;;;;;;5040687;28;20573;-66
2021/06/05 11:06:14;;;;;;;2.53;1.60;;;21.90;99.70;;;;;;5032598;28;20791;-67
2021/06/05 11:08:45;;;;;;;3.73;1.60;;;21.90;99.70;;;;;;5032735;28;20978;-67
2021/06/05 11:11:36;;;;;;;3.07;1.40;;;22.10;99.70;;;;;;5032476;28;20885;-68
2021/06/05 11:14:09;;;;;;;2.50;1.70;;;21.90;99.70;;;;;;5040440;28;20466;-66
2021/06/05 11:17:09;;;;;;;2.20;1.60;;;21.80;99.70;;;;;;5052663;28;20440;-66
2021/06/05 11:19:39;;;;;;;2.93;1.70;;;21.80;99.70;;;;;;5033166;28;20527;-67
2021/06/05 11:22:07;;;;;;;2.40;1.60;;;22.00;99.70;;;;;;5050233;28;20875;-66
2021/06/05 11:24:33;;;;;;;2.27;1.70;;;22.00;99.70;;;;;;5033418;28;20838;-66
2021/06/05 11:27:09;;;;;;;2.53;1.90;;;22.10;99.70;;;;;;5031855;28;20460;-66
2021/06/05 11:30:00;;;;;;;2.27;1.40;;;22.10;99.70;;;;;;5049361;28;20447;-66
2021/06/05 11:33:00;;;;;;;2.73;1.70;;;22.10;99.70;;;;;;5032064;28;20769;-67
2021/06/05 11:35:52;;;;;;;2.20;1.50;;;22.10;99.70;;;;;;5032220;28;20460;-69
2021/06/05 11:38:48;;;;;;;1.80;1.33;;;22.10;99.70;;;;;;5031923;28;20959;-65
2021/06/05 11:41:40;;;;;;;3.43;1.50;;;21.70;99.70;;;;;;5051459;28;20479;-67
2021/06/05 11:44:29;;;;;;;2.37;1.30;;;21.90;99.70;;;;;;5050718;28;20475;-67
2021/06/05 11:47:00;;;;;;;1.70;1.30;;;22.00;99.70;;;;;;5037670;28;20439;-67
2021/06/05 11:49:55;;;;;;;2.73;1.80;;;22.10;99.70;;;;;;5037470;28;20441;-65
2021/06/05 11:52:46;;;;;;;2.50;1.60;;;22.10;99.70;;;;;;5004243;28;20815;-66
2021/06/05 11:55:42;;;;;;;1.80;1.40;;;22.20;99.70;;;;;;5046793;28;20704;-66
2021/06/05 11:58:33;;;;;;;3.00;1.60;;;22.20;99.70;;;;;;5049256;28;20452;-68
2021/06/05 12:01:09;;;;;;;2.30;1.50;;;22.00;99.70;;;;;;5030587;28;20579;-67
2021/06/05 12:03:45;;;;;;;2.00;1.53;;;21.90;99.70;;;;;;5036184;28;20880;-67
2021/06/05 12:06:16;;;;;;;2.73;1.57;;;22.00;99.70;;;;;;5051179;28;20439;-66
2021/06/05 12:08:43;;;;;;;2.17;1.50;;;21.80;99.70;;;;;;5045282;28;20447;-66
2021/06/05 12:11:20;;;;;;;2.40;1.80;;;21.80;99.70;;;;;;5031269;28;20441;-66
2021/06/05 12:13:46;;;;;;;2.10;1.50;;;21.80;99.70;;;;;;5030843;28;20456;-66
2021/06/05 12:16:17;;;;;;;2.67;1.70;;;21.70;99.70;;;;;;5039080;28;20515;-66
2021/06/05 12:18:46;;;;;;;2.70;1.63;;;21.60;99.70;;;;;;5040544;28;20440;-66
2021/06/05 12:21:27;;;;;;;3.33;1.73;;;21.40;99.70;;;;;;5040526;28;20476;-66
2021/06/05 12:23:54;;;;;;;2.60;1.60;;;21.30;99.70;;;;;;5039480;28;20842;-66
2021/06/05 12:26:26;;;;;;;2.20;1.70;;;21.10;99.70;;;;;;5039996;28;20447;-67
2021/06/05 12:29:07;;;;;;;1.90;1.50;;;20.80;99.70;;;;;;5038220;28;20446;-67
2021/06/05 12:31:45;;;;;;;4.00;2.00;;;21.00;99.70;;;;;;5040063;28;20448;-67
2021/06/05 12:34:14;;;;;;;2.83;1.70;;;21.30;99.70;;;;;;5044215;28;20483;-67
2021/06/05 12:36:43;;;;;;;3.13;1.80;;;21.30;99.70;;;;;;5038053;28;20452;-67
2021/06/05 12:39:13;;;;;;;3.60;2.00;;;21.60;99.70;;;;;;5039868;28;21020;-66
2021/06/05 12:41:44;;;;;;;3.03;1.70;;;21.80;99.70;;;;;;5035853;28;20970;-66
2021/06/05 12:44:19;;;;;;;3.20;1.80;;;21.90;99.70;;;;;;5050467;28;20472;-68
2021/06/05 12:46:47;;;;;;;2.27;1.70;;;21.80;99.70;;;;;;5046831;28;20555;-66
2021/06/05 12:49:17;;;;;;;2.63;1.70;;;21.80;99.70;;;;;;5030921;28;20845;-66
2021/06/05 12:51:47;;;;;;;2.60;1.60;;;22.00;99.70;;;;;;5033715;28;20447;-67
2021/06/05 12:54:27;;;;;;;2.40;1.50;;;22.00;99.70;;;;;;5029996;28;20464;-66
2021/06/05 12:56:53;;;;;;;2.33;1.57;;;22.00;99.70;;;;;;5033101;28;21087;-66
2021/06/05 12:59:31;;;;;;;1.80;1.40;;;22.00;99.70;;;;;;5050183;28;20443;-66
2021/06/05 13:02:02;;;;;;;1.50;1.37;;;22.20;99.70;;;;;;5045687;28;20456;-66
2021/06/05 13:04:30;;;;;;;2.00;1.40;;;22.20;99.70;;;;;;5047976;28;20483;-66